Time;durP1;ratioP1;P1;durP2;ratioP2;P2;SDS_P1;SDS_P2;PMS_P1;PMS_P2;Temp;Humidity;BMP_temperature;BMP_pressure;BME280_temperature;BME280_humidity;BME280_pressure;Samples;Min_cycle;Max_cycle;Signal;HPM_P1;HPM_P2
2022/09/05 00:02:34;;;;;;;2.73;2.53;;;13.90;99.90;;;;;;4933719;29;20459;-83
2022/09/05 00:05:21;;;;;;;6.23;3.20;;;13.90;99.90;;;;;;4964878;28;20459;-81
2022/09/05 00:07:57;;;;;;;5.10;2.93;;;13.90;99.90;;;;;;4955644;29;20458;-81
2022/09/05 00:10:32;;;;;;;3.53;3.00;;;13.90;99.90;;;;;;4954492;29;20486;-81
2022/09/05 00:13:02;;;;;;;3.03;2.70;;;13.90;99.90;;;;;;4954751;29;20462;-81
2022/09/05 00:15:39;;;;;;;2.90;2.70;;;13.80;99.90;;;;;;4953054;29;20487;-81
2022/09/05 00:18:30;;;;;;;3.33;3.03;;;13.80;99.90;;;;;;4954470;29;20451;-81
2022/09/05 00:21:08;;;;;;;4.80;2.67;;;13.80;99.90;;;;;;4943400;29;20466;-82
2022/09/05 00:23:47;;;;;;;2.83;2.47;;;13.80;99.90;;;;;;4954251;29;20459;-82
2022/09/05 00:26:27;;;;;;;3.50;2.60;;;13.80;99.90;;;;;;4954146;29;20455;-81
2022/09/05 00:29:12;;;;;;;3.40;2.60;;;13.80;99.90;;;;;;4953932;29;20816;-82
2022/09/05 00:31:53;;;;;;;3.23;2.60;;;13.70;99.90;;;;;;4951118;29;20549;-81
2022/09/05 00:34:36;;;;;;;3.40;3.10;;;13.70;99.90;;;;;;4951050;28;20482;-80
2022/09/05 00:37:05;;;;;;;3.43;3.13;;;13.80;99.90;;;;;;4957910;29;20450;-81
2022/09/05 00:39:37;;;;;;;3.00;2.27;;;13.80;99.90;;;;;;4957754;29;20450;-81
2022/09/05 00:42:08;;;;;;;4.27;2.53;;;13.80;99.90;;;;;;4957732;29;20453;-81
2022/09/05 00:44:46;;;;;;;2.50;2.30;;;13.80;99.90;;;;;;4951874;29;20462;-81
2022/09/05 00:47:25;;;;;;;2.90;2.70;;;13.70;99.90;;;;;;4957537;29;20447;-80
2022/09/05 00:49:58;;;;;;;3.10;2.80;;;13.70;99.90;;;;;;4952551;29;20495;-81
2022/09/05 00:52:34;;;;;;;2.93;2.63;;;13.70;99.90;;;;;;4957418;29;20473;-83
2022/09/05 00:55:25;;;;;;;2.73;2.53;;;13.70;99.90;;;;;;4955014;29;20451;-84
2022/09/05 00:58:08;;;;;;;4.50;3.07;;;13.60;99.90;;;;;;4953345;29;20478;-83
2022/09/05 01:00:48;;;;;;;4.63;2.70;;;13.60;99.90;;;;;;4953608;29;20466;-83
2022/09/05 01:03:32;;;;;;;3.83;2.40;;;13.60;99.90;;;;;;4957679;29;20550;-82
2022/09/05 01:06:15;;;;;;;6.27;2.90;;;13.60;99.90;;;;;;4957661;29;20453;-81
2022/09/05 01:09:07;;;;;;;4.43;2.63;;;13.60;99.90;;;;;;4955270;29;20443;-81
2022/09/05 01:11:50;;;;;;;4.00;3.00;;;13.60;99.90;;;;;;4957441;29;20505;-81
2022/09/05 01:14:31;;;;;;;3.43;2.90;;;13.60;99.90;;;;;;4956357;29;20454;-81
2022/09/05 01:17:32;;;;;;;3.40;2.97;;;13.50;99.90;;;;;;4957187;29;20487;-81
2022/09/05 01:20:26;;;;;;;2.93;2.73;;;13.50;99.90;;;;;;4953750;29;20462;-82
2022/09/05 01:23:06;;;;;;;3.33;2.77;;;13.50;99.90;;;;;;4957442;29;20455;-83
2022/09/05 01:25:57;;;;;;;5.07;3.20;;;13.50;99.90;;;;;;4957416;29;20487;-81
2022/09/05 01:28:31;;;;;;;2.87;2.60;;;13.50;99.90;;;;;;4954205;29;20458;-80
2022/09/05 01:31:07;;;;;;;4.97;3.30;;;13.40;99.90;;;;;;4953429;29;20487;-82
2022/09/05 01:33:43;;;;;;;4.60;3.30;;;13.40;99.90;;;;;;4952255;29;20450;-83
2022/09/05 01:36:18;;;;;;;3.40;2.70;;;13.40;99.90;;;;;;4951143;29;20451;-84
2022/09/05 01:38:55;;;;;;;5.10;3.40;;;13.40;99.90;;;;;;4957299;29;20459;-82
2022/09/05 01:41:30;;;;;;;3.50;2.90;;;13.40;99.90;;;;;;4954053;29;20545;-82
2022/09/05 01:44:22;;;;;;;5.33;2.90;;;13.30;99.90;;;;;;4956814;29;20659;-83
2022/09/05 01:47:18;;;;;;;5.40;3.07;;;13.30;99.90;;;;;;4953053;28;20542;-81
2022/09/05 01:49:56;;;;;;;2.87;2.57;;;13.20;99.90;;;;;;4956827;29;20458;-81
2022/09/05 01:52:38;;;;;;;3.20;2.90;;;13.30;99.90;;;;;;4956552;29;20998;-81
2022/09/05 01:55:22;;;;;;;3.53;3.30;;;13.20;99.90;;;;;;4950800;29;20792;-81
2022/09/05 01:57:57;;;;;;;2.80;2.60;;;13.20;99.90;;;;;;4956695;29;20450;-82
2022/09/05 02:00:34;;;;;;;4.53;3.20;;;13.20;99.90;;;;;;4950399;29;20455;-82
2022/09/05 02:03:13;;;;;;;3.93;2.60;;;13.20;99.90;;;;;;4949925;29;20443;-84
2022/09/05 02:06:16;;;;;;;4.30;2.90;;;13.20;99.90;;;;;;4956639;29;20446;-83
2022/09/05 02:09:10;;;;;;;3.00;2.80;;;13.20;99.90;;;;;;4956699;29;21076;-82
2022/09/05 02:11:45;;;;;;;3.00;2.60;;;13.10;99.90;;;;;;4956477;29;20505;-83
2022/09/05 02:14:24;;;;;;;3.40;3.10;;;13.10;99.90;;;;;;4955474;29;20459;-81
2022/09/05 02:16:57;;;;;;;3.07;2.83;;;13.10;99.90;;;;;;4953285;29;20847;-80
2022/09/05 02:19:28;;;;;;;5.63;3.10;;;13.10;99.90;;;;;;4956283;29;20455;-80
2022/09/05 02:22:02;;;;;;;4.83;3.13;;;13.00;99.90;;;;;;4953328;29;20465;-81
2022/09/05 02:24:36;;;;;;;3.00;2.80;;;13.00;99.90;;;;;;4951205;29;20458;-81
2022/09/05 02:27:20;;;;;;;3.20;2.90;;;13.00;99.90;;;;;;4956515;29;20461;-80
2022/09/05 02:29:59;;;;;;;5.83;2.70;;;13.00;99.90;;;;;;4954988;29;20809;-81
2022/09/05 02:32:32;;;;;;;3.37;3.07;;;12.90;99.90;;;;;;4956015;29;20494;-81
2022/09/05 02:35:03;;;;;;;3.80;3.20;;;12.90;99.90;;;;;;4956054;29;20838;-82
2022/09/05 02:37:37;;;;;;;3.47;3.20;;;12.90;99.90;;;;;;4955903;29;20451;-82
2022/09/05 02:40:12;;;;;;;3.20;2.73;;;12.90;99.90;;;;;;4955932;29;20458;-82
2022/09/05 02:42:47;;;;;;;2.83;2.63;;;12.90;99.90;;;;;;4955853;29;20455;-82
2022/09/05 02:45:22;;;;;;;3.33;3.03;;;12.90;99.90;;;;;;4954716;29;20454;-83
2022/09/05 02:47:55;;;;;;;3.33;2.73;;;12.80;99.90;;;;;;4955889;29;20458;-80
2022/09/05 02:50:35;;;;;;;5.40;3.17;;;12.80;99.90;;;;;;4955646;29;20455;-82
2022/09/05 02:53:04;;;;;;;4.10;3.50;;;12.80;99.90;;;;;;4955583;29;20480;-83
2022/09/05 02:55:46;;;;;;;3.20;3.00;;;12.80;99.90;;;;;;4955649;29;20447;-80
2022/09/05 02:58:38;;;;;;;2.87;2.57;;;12.80;99.90;;;;;;4951371;28;20466;-81
2022/09/05 03:01:11;;;;;;;3.30;2.80;;;12.40;99.90;;;;;;4951496;29;20451;-83
2022/09/05 03:03:48;;;;;;;6.43;3.50;;;12.80;99.90;;;;;;4951938;29;20447;-81
2022/09/05 03:06:28;;;;;;;3.40;2.33;;;12.70;99.90;;;;;;4955568;29;20446;-84
2022/09/05 03:09:10;;;;;;;2.87;2.67;;;12.70;99.90;;;;;;4955418;29;20459;-82
2022/09/05 03:12:03;;;;;;;6.93;3.00;;;12.80;99.90;;;;;;4952272;29;20490;-80
2022/09/05 03:15:06;;;;;;;3.87;3.57;;;12.70;99.90;;;;;;4954228;29;20451;-82
2022/09/05 03:17:54;;;;;;;3.33;3.03;;;12.80;99.90;;;;;;4952380;29;20541;-81
2022/09/05 03:20:51;;;;;;;2.63;2.43;;;12.80;99.90;;;;;;4955487;29;20462;-84
2022/09/05 03:23:54;;;;;;;3.43;3.00;;;12.80;99.90;;;;;;4955268;29;20521;-82
2022/09/05 03:26:47;;;;;;;6.57;3.17;;;12.70;99.90;;;;;;4955179;29;20451;-82
2022/09/05 03:29:55;;;;;;;6.83;2.80;;;12.70;99.90;;;;;;4953940;29;20482;-80
2022/09/05 03:33:02;;;;;;;7.43;2.83;;;12.70;99.90;;;;;;4952079;29;20495;-81
2022/09/05 03:36:15;;;;;;;3.00;2.67;;;12.70;99.90;;;;;;4955158;29;20450;-81
2022/09/05 03:39:16;;;;;;;3.40;2.90;;;12.60;99.90;;;;;;4953512;29;20969;-82
2022/09/05 03:42:10;;;;;;;3.37;2.20;;;12.60;99.90;;;;;;4948537;29;20459;-81
2022/09/05 03:44:53;;;;;;;3.03;2.83;;;12.60;99.90;;;;;;4953735;29;20786;-81
2022/09/05 03:47:41;;;;;;;2.80;2.50;;;12.60;99.90;;;;;;4947241;29;20451;-83
2022/09/05 03:50:37;;;;;;;3.13;2.80;;;12.60;99.90;;;;;;4954975;29;20447;-81
2022/09/05 03:53:33;;;;;;;2.80;2.60;;;12.60;99.90;;;;;;4941804;29;20487;-81
2022/09/05 03:56:18;;;;;;;3.77;3.47;;;12.60;99.90;;;;;;4952034;29;20462;-80
2022/09/05 03:59:22;;;;;;;3.37;2.83;;;12.60;99.90;;;;;;4951763;29;20442;-80
2022/09/05 04:01:52;;;;;;;3.20;2.90;;;12.60;99.90;;;;;;4954141;29;20471;-81
2022/09/05 04:04:27;;;;;;;3.80;3.10;;;12.60;99.90;;;;;;4947151;29;20471;-81
2022/09/05 04:06:57;;;;;;;3.37;2.73;;;12.70;99.90;;;;;;4951747;29;20955;-81
2022/09/05 04:09:37;;;;;;;5.83;2.80;;;12.70;99.90;;;;;;4954785;28;20466;-80
2022/09/05 04:12:14;;;;;;;4.23;3.37;;;12.60;99.90;;;;;;4955609;29;20490;-80
2022/09/05 04:14:49;;;;;;;3.50;3.20;;;12.60;99.90;;;;;;4954541;29;20450;-82
2022/09/05 04:17:25;;;;;;;3.90;2.70;;;12.60;99.90;;;;;;4954539;29;21189;-81
2022/09/05 04:19:58;;;;;;;3.03;2.83;;;12.60;99.90;;;;;;4958464;29;20809;-80
2022/09/05 04:22:37;;;;;;;3.33;2.80;;;12.60;99.90;;;;;;4955469;29;20546;-80
2022/09/05 04:25:13;;;;;;;4.30;2.97;;;12.60;99.90;;;;;;4958453;29;20449;-83
2022/09/05 04:27:48;;;;;;;3.47;3.17;;;12.60;99.90;;;;;;4953117;29;20461;-83
2022/09/05 04:30:41;;;;;;;7.83;3.20;;;12.60;99.90;;;;;;4952039;29;20455;-81
2022/09/05 04:33:18;;;;;;;3.27;2.87;;;12.60;99.90;;;;;;4957238;29;20506;-80
2022/09/05 04:35:57;;;;;;;10.33;2.93;;;12.60;99.90;;;;;;4958279;29;20477;-80
2022/09/05 04:38:40;;;;;;;3.57;3.27;;;12.60;99.90;;;;;;4958181;29;20946;-80
2022/09/05 04:41:12;;;;;;;9.20;3.40;;;12.60;99.90;;;;;;4956019;29;20465;-80
2022/09/05 04:43:44;;;;;;;3.03;2.73;;;12.60;99.90;;;;;;4957940;29;20459;-82
2022/09/05 04:46:21;;;;;;;2.97;2.70;;;12.60;99.90;;;;;;4956863;29;20443;-81
2022/09/05 04:48:58;;;;;;;5.23;3.10;;;12.60;99.90;;;;;;4958043;29;20872;-80
2022/09/05 04:51:53;;;;;;;3.20;2.87;;;12.60;99.90;;;;;;4957761;29;20490;-81
2022/09/05 04:54:33;;;;;;;2.80;2.60;;;12.60;99.90;;;;;;4915932;29;20454;-80
2022/09/05 04:57:18;;;;;;;3.53;2.57;;;12.60;99.90;;;;;;4957884;29;20450;-80
2022/09/05 04:59:51;;;;;;;8.30;3.30;;;12.60;99.90;;;;;;4953674;29;20487;-80
2022/09/05 05:02:24;;;;;;;2.80;2.60;;;12.60;99.90;;;;;;4957612;29;20451;-81
2022/09/05 05:05:00;;;;;;;4.80;2.63;;;12.60;99.90;;;;;;4957783;29;20447;-81
2022/09/05 05:07:38;;;;;;;2.93;2.63;;;12.70;99.90;;;;;;4957721;29;20446;-83
2022/09/05 05:10:09;;;;;;;3.50;3.10;;;12.70;99.90;;;;;;4957685;29;20782;-80
2022/09/05 05:12:52;;;;;;;6.33;3.90;;;12.80;99.90;;;;;;4957565;29;20502;-82
2022/09/05 05:15:21;;;;;;;2.80;2.60;;;12.90;99.90;;;;;;4953338;29;20479;-81
2022/09/05 05:17:54;;;;;;;5.00;3.40;;;12.90;99.90;;;;;;4957526;29;20459;-81
2022/09/05 05:20:25;;;;;;;4.27;2.73;;;13.00;99.90;;;;;;4957516;29;20457;-81
2022/09/05 05:22:59;;;;;;;5.13;3.50;;;13.10;99.90;;;;;;4952656;29;20454;-84
2022/09/05 05:25:26;;;;;;;3.53;3.23;;;;;;;;;;4957214;29;20454;-83
2022/09/05 05:28:07;;;;;;;2.90;2.60;;;13.20;99.90;;;;;;4959801;28;20449;-80
2022/09/05 05:30:34;;;;;;;4.80;3.00;;;;;;;;;;4967065;28;20454;-82
2022/09/05 05:33:15;;;;;;;4.60;3.40;;;13.90;99.90;;;;;;4973360;28;20495;-82
2022/09/05 05:35:47;;;;;;;4.30;2.80;;;14.20;99.90;;;;;;4967944;28;20446;-83
2022/09/05 05:38:29;;;;;;;3.60;3.30;;;14.50;99.90;;;;;;4959553;28;20446;-83
2022/09/05 05:41:05;;;;;;;3.20;2.87;;;14.90;99.90;;;;;;4963191;28;20933;-83
2022/09/05 05:43:38;;;;;;;3.00;2.77;;;15.40;99.90;;;;;;4976354;28;20454;-83
2022/09/05 05:46:05;;;;;;;3.93;3.53;;;;;;;;;;4975230;28;20799;-83
2022/09/05 05:48:36;;;;;;;3.10;2.67;;;15.90;99.90;;;;;;4976333;28;20477;-85
2022/09/05 05:51:19;;;;;;;4.43;2.40;;;15.80;99.90;;;;;;4976094;28;20480;-85
2022/09/05 05:53:53;;;;;;;3.60;2.60;;;15.70;99.90;;;;;;4976069;28;20458;-87
2022/09/05 05:56:49;;;;;;;4.00;2.60;;;15.90;99.90;;;;;;4976130;28;20449;-89
2022/09/05 05:59:52;;;;;;;4.43;2.93;;;16.10;99.90;;;;;;4936291;28;20482;-87
2022/09/05 06:02:33;;;;;;;7.87;3.20;;;;;;;;;;4934909;28;20532;-85
2022/09/05 06:05:12;;;;;;;2.60;2.40;;;;;;;;;;4975744;28;20458;-85
2022/09/05 06:07:45;;;;;;;6.60;3.00;;;;;;;;;;4975844;28;20453;-85
2022/09/05 06:10:41;;;;;;;2.77;2.57;;;17.30;99.90;;;;;;4975820;28;20456;-86
2022/09/05 06:13:38;;;;;;;3.07;2.43;;;17.50;99.90;;;;;;4942771;28;20496;-85
2022/09/05 06:16:38;;;;;;;3.00;2.70;;;17.70;99.90;;;;;;4940793;28;20482;-86
2022/09/05 06:20:01;;;;;;;2.80;2.60;;;18.00;99.90;;;;;;4975662;28;20454;-84
2022/09/05 06:22:36;;;;;;;2.57;2.37;;;;;;;;;;4897827;29;20973;-85
2022/09/05 06:25:41;;;;;;;3.63;2.80;;;19.00;99.90;;;;;;4898231;29;20457;-84
2022/09/05 06:28:20;;;;;;;3.97;2.63;;;19.40;99.90;;;;;;4992928;28;20445;-85
2022/09/05 06:37:24;;;;;;;5.33;2.60;;;;;;;;;;4987337;28;20438;-91
2022/09/05 06:42:45;;;;;;;31.67;9.57;;;;;;;;;;5959712;23;20422;-90
2022/09/05 06:52:05;;;;;;;4.53;3.23;;;22.40;98.70;;;;;;4966642;28;20446;-95
2022/09/05 06:55:10;;;;;;;2.40;2.20;;;;;;;;;;4978345;28;20489;-90
2022/09/05 07:00:28;;;;;;;3.60;2.67;;;;;;;;;;5102484;23;21088;-91
2022/09/05 07:03:24;;;;;;;2.77;2.57;;;22.70;98.20;;;;;;4975478;28;20494;-83
2022/09/05 07:05:56;;;;;;;4.47;2.40;;;23.00;97.40;;;;;;4974978;28;20450;-82
2022/09/05 07:08:29;;;;;;;2.73;2.40;;;23.70;96.60;;;;;;4974887;28;20949;-82
2022/09/05 07:11:03;;;;;;;2.50;2.30;;;24.30;94.50;;;;;;4971107;28;20454;-82
2022/09/05 07:13:35;;;;;;;3.27;2.40;;;24.80;93.80;;;;;;4974680;28;20450;-82
2022/09/05 07:16:12;;;;;;;2.30;2.10;;;24.40;93.00;;;;;;4973492;28;20458;-83
2022/09/05 07:18:48;;;;;;;1.93;1.83;;;24.50;92.30;;;;;;4974511;28;20945;-82
2022/09/05 07:21:20;;;;;;;3.13;1.87;;;;;;;;;;4972591;28;20454;-84
2022/09/05 07:23:52;;;;;;;2.60;2.10;;;25.10;90.60;;;;;;4974416;28;20497;-82
2022/09/05 07:26:20;;;;;;;3.13;2.20;;;;;;;;;;4974415;28;20458;-83
2022/09/05 07:28:56;;;;;;;2.10;2.00;;;25.70;88.40;;;;;;4974609;28;20461;-81
2022/09/05 07:31:27;;;;;;;1.97;1.77;;;25.90;87.60;;;;;;4971593;28;20480;-84
2022/09/05 07:34:12;;;;;;;2.13;1.90;;;24.90;90.80;;;;;;4974385;28;20557;-83
2022/09/05 07:36:43;;;;;;;2.30;2.10;;;24.40;92.50;;;;;;4971403;28;20465;-83
2022/09/05 07:39:15;;;;;;;2.20;2.03;;;23.20;95.30;;;;;;4971367;28;20453;-83
2022/09/05 07:41:50;;;;;;;2.80;2.00;;;23.20;94.80;;;;;;4974177;28;20461;-83
2022/09/05 07:44:22;;;;;;;2.10;2.00;;;25.40;96.80;;;;;;4969600;28;20458;-83
2022/09/05 07:46:53;;;;;;;1.60;1.50;;;23.40;93.30;;;;;;4971524;28;20810;-82
2022/09/05 07:49:23;;;;;;;2.40;2.20;;;22.60;94.70;;;;;;4974177;28;20954;-83
2022/09/05 07:51:54;;;;;;;2.30;2.10;;;23.40;93.50;;;;;;4974177;28;20513;-84
2022/09/05 07:54:25;;;;;;;5.63;2.23;;;24.30;91.80;;;;;;4974176;28;20461;-85
2022/09/05 07:56:56;;;;;;;3.20;2.37;;;25.30;86.00;;;;;;4971254;28;20832;-82
2022/09/05 07:59:26;;;;;;;2.60;2.40;;;25.60;82.90;;;;;;4972753;28;20846;-82
2022/09/05 08:01:54;;;;;;;2.60;2.40;;;;;;;;;;4974033;28;20450;-83
2022/09/05 08:04:27;;;;;;;2.40;2.20;;;26.10;80.00;;;;;;4974197;28;20446;-83
2022/09/05 08:06:57;;;;;;;2.10;1.97;;;26.50;79.90;;;;;;4974043;28;20509;-82
2022/09/05 08:09:28;;;;;;;1.80;1.70;;;26.40;82.50;;;;;;4971500;28;20805;-82
2022/09/05 08:12:01;;;;;;;2.37;2.17;;;26.60;79.50;;;;;;4970925;28;20500;-82
2022/09/05 08:14:42;;;;;;;2.43;2.23;;;25.80;81.90;;;;;;4975048;28;20801;-89
2022/09/05 08:17:14;;;;;;;2.27;2.07;;;26.10;79.60;;;;;;4973172;28;20867;-84
2022/09/05 08:19:54;;;;;;;2.30;2.10;;;26.60;78.70;;;;;;4955426;29;20455;-87
2022/09/05 08:22:24;;;;;;;2.33;2.13;;;26.80;76.60;;;;;;4949846;29;20479;-87
2022/09/05 08:25:01;;;;;;;2.43;2.10;;;27.10;74.80;;;;;;4955083;29;20450;-87
2022/09/05 08:27:35;;;;;;;4.50;2.30;;;26.90;74.10;;;;;;4954712;29;20473;-84
2022/09/05 08:30:06;;;;;;;2.30;2.10;;;27.40;74.20;;;;;;4954892;29;20457;-88
2022/09/05 08:32:43;;;;;;;2.30;2.17;;;28.00;71.50;;;;;;4954956;29;20463;-84
2022/09/05 08:35:16;;;;;;;2.20;2.10;;;27.10;72.20;;;;;;4954980;29;20522;-92
2022/09/05 08:37:45;;;;;;;2.37;2.17;;;27.20;74.30;;;;;;4950637;29;21010;-86
2022/09/05 08:40:26;;;;;;;2.40;2.20;;;27.80;71.00;;;;;;4955018;29;20820;-85
2022/09/05 08:43:02;;;;;;;2.23;2.03;;;28.10;71.00;;;;;;4954798;29;20499;-88
2022/09/05 08:45:38;;;;;;;2.20;1.93;;;28.50;68.90;;;;;;4953770;29;20455;-82
2022/09/05 08:48:14;;;;;;;2.00;1.90;;;27.90;71.00;;;;;;4954801;29;20462;-85
2022/09/05 08:51:02;;;;;;;4.17;2.37;;;28.20;70.50;;;;;;4954863;29;20458;-86
2022/09/05 08:53:47;;;;;;;2.00;1.90;;;28.80;70.10;;;;;;4954527;29;20459;-85
2022/09/05 08:56:20;;;;;;;3.10;2.20;;;28.60;66.90;;;;;;4955492;28;20852;-85
2022/09/05 08:58:58;;;;;;;2.43;2.23;;;29.20;67.70;;;;;;4957995;29;20487;-86
2022/09/05 09:01:30;;;;;;;2.57;2.37;;;29.20;67.40;;;;;;4956896;29;20809;-88
2022/09/05 09:04:15;;;;;;;2.20;2.00;;;29.80;63.90;;;;;;4976055;28;20479;-87
2022/09/05 09:07:14;;;;;;;2.10;1.90;;;30.20;65.10;;;;;;4975521;28;20950;-89
2022/09/05 09:09:47;;;;;;;2.47;2.27;;;30.30;60.30;;;;;;4958356;29;20458;-81
2022/09/05 09:12:31;;;;;;;2.60;2.40;;;29.70;63.50;;;;;;4957854;29;20497;-87
2022/09/05 09:15:02;;;;;;;4.70;2.30;;;29.50;63.70;;;;;;4957338;29;20455;-89
2022/09/05 09:17:42;;;;;;;3.03;2.10;;;29.50;63.10;;;;;;4953802;28;21012;-84
2022/09/05 09:20:22;;;;;;;2.93;2.50;;;29.20;64.00;;;;;;4950921;29;20541;-87
2022/09/05 09:22:57;;;;;;;2.50;2.30;;;29.50;64.10;;;;;;4957268;29;20522;-85
2022/09/05 09:25:28;;;;;;;2.63;2.40;;;29.50;62.10;;;;;;4953223;29;20459;-87
2022/09/05 09:28:39;;;;;;;2.70;2.10;;;29.90;60.90;;;;;;4957474;29;20447;-85
2022/09/05 09:31:12;;;;;;;2.70;2.10;;;30.20;60.60;;;;;;4936343;29;20443;-84
2022/09/05 09:33:44;;;;;;;2.37;2.17;;;30.30;59.80;;;;;;4957199;29;20478;-86
2022/09/05 09:36:30;;;;;;;3.13;2.37;;;30.60;58.40;;;;;;4957142;29;20454;-85
2022/09/05 09:39:11;;;;;;;2.90;1.97;;;29.30;59.40;;;;;;4957304;29;20457;-84
2022/09/05 09:41:53;;;;;;;2.10;2.00;;;29.70;60.90;;;;;;4953370;29;20459;-85
2022/09/05 09:44:52;;;;;;;2.17;1.90;;;30.30;59.10;;;;;;4954416;29;20506;-86
2022/09/05 09:47:44;;;;;;;3.07;2.30;;;30.00;59.00;;;;;;4956683;29;20455;-86
2022/09/05 09:50:25;;;;;;;2.30;2.10;;;30.40;57.70;;;;;;4953686;28;20783;-89
2022/09/05 09:53:22;;;;;;;2.47;2.33;;;30.20;56.90;;;;;;4953014;29;20466;-84
2022/09/05 09:56:27;;;;;;;2.40;2.20;;;30.40;58.80;;;;;;4956217;29;20474;-85
2022/09/05 09:59:14;;;;;;;2.40;2.20;;;29.90;57.70;;;;;;4952872;29;20489;-90
2022/09/05 10:01:52;;;;;;;4.70;2.23;;;29.40;57.80;;;;;;4956497;29;20459;-87
2022/09/05 10:04:36;;;;;;;4.60;2.37;;;29.30;58.10;;;;;;4955695;28;20505;-90
2022/09/05 10:07:42;;;;;;;2.37;2.17;;;28.70;58.40;;;;;;4953279;28;20458;-85
2022/09/05 10:10:31;;;;;;;2.00;1.90;;;29.50;60.50;;;;;;4955080;29;20485;-87
2022/09/05 10:13:25;;;;;;;2.30;2.00;;;30.30;53.30;;;;;;4948653;29;20870;-80
2022/09/05 10:16:32;;;;;;;2.50;2.30;;;31.00;52.40;;;;;;4954667;29;20446;-88
2022/09/05 10:19:27;;;;;;;2.10;1.90;;;31.10;52.10;;;;;;4956687;29;20446;-85
2022/09/05 10:22:12;;;;;;;2.00;1.63;;;31.10;50.60;;;;;;4956295;29;20455;-83
2022/09/05 10:25:18;;;;;;;1.80;1.70;;;30.50;50.90;;;;;;4950741;29;20499;-86
2022/09/05 10:28:04;;;;;;;1.87;1.77;;;30.50;50.70;;;;;;4949255;29;20455;-88
2022/09/05 10:30:42;;;;;;;2.07;1.70;;;30.40;49.90;;;;;;4955896;29;20472;-88
2022/09/05 10:33:29;;;;;;;1.90;1.70;;;31.30;49.80;;;;;;4955962;29;20466;-89
2022/09/05 10:36:02;;;;;;;2.60;1.73;;;31.20;45.50;;;;;;4942678;29;20471;-83
2022/09/05 10:38:39;;;;;;;2.50;1.90;;;31.10;47.10;;;;;;4955873;29;20463;-84
2022/09/05 10:41:09;;;;;;;1.90;1.80;;;30.80;47.40;;;;;;4955830;29;20462;-85
2022/09/05 10:43:48;;;;;;;1.90;1.80;;;31.10;47.70;;;;;;4955561;29;20562;-82
2022/09/05 10:46:25;;;;;;;2.27;2.10;;;31.50;48.10;;;;;;4954769;29;20462;-84
2022/09/05 10:48:54;;;;;;;1.87;1.77;;;30.50;48.60;;;;;;4951226;29;20458;-84
2022/09/05 10:51:29;;;;;;;2.83;1.87;;;31.00;48.20;;;;;;4955609;29;20450;-82
2022/09/05 10:54:23;;;;;;;2.00;1.83;;;31.40;47.60;;;;;;4955549;29;20950;-83
2022/09/05 10:56:57;;;;;;;3.60;2.00;;;30.70;48.90;;;;;;4955543;29;20510;-81
2022/09/05 10:59:30;;;;;;;2.33;2.13;;;31.00;48.00;;;;;;4954525;29;20847;-84
2022/09/05 11:02:04;;;;;;;8.00;4.07;;;31.00;49.60;;;;;;4952835;29;20451;-83
2022/09/05 11:04:45;;;;;;;1.90;1.80;;;30.70;50.90;;;;;;4955721;29;20494;-80
2022/09/05 11:07:14;;;;;;;3.80;2.13;;;31.10;48.30;;;;;;4953721;29;20451;-84
2022/09/05 11:10:00;;;;;;;3.23;3.03;;;31.20;51.20;;;;;;4956523;29;20464;-87
2022/09/05 11:12:37;;;;;;;2.53;2.33;;;32.00;48.30;;;;;;4956192;29;20545;-80
2022/09/05 11:15:09;;;;;;;3.00;2.47;;;32.40;47.30;;;;;;4954438;29;20465;-80
2022/09/05 11:17:40;;;;;;;2.97;1.83;;;32.20;47.70;;;;;;4955435;29;20467;-79
2022/09/05 11:20:36;;;;;;;3.60;3.30;;;31.10;48.70;;;;;;4955412;28;20456;-79
2022/09/05 11:23:09;;;;;;;2.60;2.40;;;30.80;47.50;;;;;;4943075;29;20478;-81
2022/09/05 11:25:38;;;;;;;2.17;2.00;;;29.30;50.90;;;;;;4955224;29;20474;-79
2022/09/05 11:28:13;;;;;;;2.30;2.10;;;28.60;50.50;;;;;;4955573;29;20938;-83
2022/09/05 11:30:46;;;;;;;3.50;2.40;;;28.50;49.40;;;;;;4951232;29;20463;-81
2022/09/05 11:33:38;;;;;;;2.30;2.10;;;28.90;50.60;;;;;;4955326;29;20463;-78
2022/09/05 11:36:07;;;;;;;2.77;2.10;;;29.40;52.00;;;;;;4955997;29;20458;-80
2022/09/05 11:38:59;;;;;;;2.67;2.20;;;30.10;52.50;;;;;;4955474;29;20521;-81
2022/09/05 11:42:12;;;;;;;2.50;2.30;;;31.00;48.50;;;;;;4977954;28;20431;-82
2022/09/05 11:45:18;;;;;;;2.83;2.10;;;31.20;48.70;;;;;;4941107;29;20491;-80
2022/09/05 11:48:16;;;;;;;2.20;2.00;;;31.60;49.30;;;;;;4955214;29;20451;-92
2022/09/05 11:51:04;;;;;;;2.07;1.87;;;30.20;47.80;;;;;;4955239;29;20451;-82
2022/09/05 11:54:04;;;;;;;2.07;1.80;;;30.50;44.80;;;;;;4955812;29;20451;-84
2022/09/05 11:57:04;;;;;;;2.47;2.27;;;30.70;43.30;;;;;;4954938;29;20458;-81
2022/09/05 12:00:15;;;;;;;2.07;1.97;;;30.40;44.60;;;;;;4936020;29;20487;-84
2022/09/05 12:02:57;;;;;;;2.00;1.80;;;31.70;47.10;;;;;;4940150;29;20459;-81
2022/09/05 12:06:00;;;;;;;2.20;2.00;;;31.50;44.20;;;;;;4954909;29;20458;-83
2022/09/05 12:08:38;;;;;;;4.73;2.13;;;30.60;47.80;;;;;;4925394;29;20463;-81
2022/09/05 12:11:21;;;;;;;2.60;2.27;;;29.70;48.30;;;;;;4954935;29;20459;-81
2022/09/05 12:13:56;;;;;;;2.20;2.00;;;29.20;50.30;;;;;;4954743;29;20466;-80
2022/09/05 12:16:45;;;;;;;2.40;2.20;;;28.90;49.50;;;;;;4953572;29;20485;-81
2022/09/05 12:19:26;;;;;;;7.73;1.77;;;28.70;53.90;;;;;;4954673;29;20962;-82
2022/09/05 12:22:18;;;;;;;4.27;2.27;;;28.20;51.80;;;;;;4954569;29;20446;-82
2022/09/05 12:25:13;;;;;;;2.50;2.30;;;28.00;57.20;;;;;;4949552;29;20491;-80
2022/09/05 12:27:42;;;;;;;2.30;2.10;;;;;;;;;;4944755;29;20463;-81
2022/09/05 12:30:12;;;;;;;2.37;2.03;;;27.80;56.90;;;;;;4953357;28;20809;-84
2022/09/05 12:32:49;;;;;;;2.60;2.40;;;27.90;54.80;;;;;;4957772;29;20977;-82
2022/09/05 12:35:30;;;;;;;2.47;2.27;;;28.40;52.40;;;;;;4958256;29;20988;-83
2022/09/05 12:38:03;;;;;;;4.10;2.00;;;29.70;52.10;;;;;;4958260;29;20973;-81
2022/09/05 12:40:34;;;;;;;2.50;2.30;;;30.60;50.30;;;;;;4958218;29;20938;-82
2022/09/05 12:43:03;;;;;;;3.60;1.97;;;30.80;51.00;;;;;;4958145;29;20451;-82
2022/09/05 12:45:37;;;;;;;2.67;2.13;;;31.10;55.10;;;;;;4956786;29;20501;-84
2022/09/05 12:48:12;;;;;;;2.30;1.80;;;31.00;56.30;;;;;;4958173;29;20457;-87
2022/09/05 12:50:50;;;;;;;2.73;2.53;;;31.00;54.20;;;;;;4958072;29;20446;-83
2022/09/05 12:53:19;;;;;;;2.10;2.00;;;31.20;50.10;;;;;;4958047;29;20447;-82
2022/09/05 12:55:51;;;;;;;2.53;2.33;;;31.30;54.30;;;;;;4957788;29;20805;-81
2022/09/05 12:58:22;;;;;;;2.23;2.03;;;31.20;51.20;;;;;;4957827;29;20455;-84
2022/09/05 13:00:50;;;;;;;2.50;2.23;;;30.80;51.80;;;;;;4956760;29;20454;-82
2022/09/05 13:03:22;;;;;;;2.57;2.33;;;30.80;54.10;;;;;;4955993;29;20455;-81
2022/09/05 13:05:59;;;;;;;2.00;1.90;;;31.00;54.80;;;;;;4957804;28;20454;-79
2022/09/05 13:08:38;;;;;;;2.30;2.00;;;30.80;51.80;;;;;;4974385;28;20453;-85
2022/09/05 13:11:08;;;;;;;2.47;2.20;;;30.70;47.90;;;;;;4976978;28;20449;-85
2022/09/05 13:13:42;;;;;;;3.10;1.90;;;30.20;52.00;;;;;;4976888;28;20942;-82
2022/09/05 13:16:10;;;;;;;2.40;2.20;;;29.30;50.50;;;;;;4975841;28;20992;-81
2022/09/05 13:18:40;;;;;;;3.33;2.00;;;29.50;52.70;;;;;;4976995;28;20457;-79
2022/09/05 13:21:12;;;;;;;2.30;2.10;;;30.30;51.30;;;;;;4977430;28;20453;-88
2022/09/05 13:23:43;;;;;;;2.47;2.27;;;30.50;50.20;;;;;;4976617;28;20446;-84
2022/09/05 13:26:16;;;;;;;2.03;1.93;;;30.40;42.00;;;;;;4976696;28;20450;-86
2022/09/05 13:28:49;;;;;;;3.13;1.97;;;29.90;48.60;;;;;;4976712;28;20809;-83
2022/09/05 13:31:17;;;;;;;2.30;2.10;;;;;;;;;;4975415;28;20544;-85
2022/09/05 13:33:47;;;;;;;2.30;2.10;;;29.90;49.60;;;;;;4976370;28;20453;-82
2022/09/05 13:36:21;;;;;;;2.40;2.20;;;29.50;51.90;;;;;;4973630;28;20465;-78
2022/09/05 13:39:02;;;;;;;4.40;2.40;;;30.50;50.70;;;;;;4974849;28;20458;-77
2022/09/05 13:41:32;;;;;;;5.73;2.00;;;31.00;51.10;;;;;;4976472;28;20793;-77
2022/09/05 13:43:59;;;;;;;3.83;2.33;;;;;;;;;;4976205;28;20497;-78
2022/09/05 13:46:36;;;;;;;2.37;2.23;;;31.50;50.10;;;;;;4975158;28;20545;-78
2022/09/05 13:49:10;;;;;;;3.70;2.90;;;31.60;50.80;;;;;;4973170;28;20477;-78
2022/09/05 13:51:42;;;;;;;2.60;2.00;;;31.50;49.40;;;;;;4976171;28;20450;-78
2022/09/05 13:54:38;;;;;;;2.70;2.37;;;31.50;49.10;;;;;;4976057;28;20458;-77
2022/09/05 13:57:35;;;;;;;2.83;2.20;;;30.80;48.00;;;;;;4976118;28;20473;-78
2022/09/05 14:00:37;;;;;;;2.40;2.17;;;30.70;42.40;;;;;;4974662;28;20482;-77
2022/09/05 14:03:27;;;;;;;3.37;2.30;;;30.50;43.40;;;;;;4923828;28;20462;-78
2022/09/05 14:06:01;;;;;;;2.07;1.97;;;30.80;49.20;;;;;;4975867;28;20498;-82
2022/09/05 14:08:53;;;;;;;2.50;2.30;;;30.60;41.90;;;;;;4968312;28;20457;-77
2022/09/05 14:11:57;;;;;;;2.30;2.10;;;30.70;44.10;;;;;;4975946;28;20451;-78
2022/09/05 14:14:31;;;;;;;2.63;2.43;;;31.20;49.00;;;;;;4896184;29;20493;-78
2022/09/05 14:17:05;;;;;;;2.30;1.93;;;31.60;50.30;;;;;;4965201;28;20481;-80
2022/09/05 14:22:35;;;;;;;2.70;2.50;;;32.00;48.30;;;;;;4975784;28;20806;-79
2022/09/05 14:25:06;;;;;;;2.13;2.03;;;32.00;45.20;;;;;;4975671;28;20502;-78